Time;durP1;ratioP1;P1;durP2;ratioP2;P2;SDS_P1;SDS_P2;PMS_P1;PMS_P2;Temp;Humidity;BMP_temperature;BMP_pressure;BME280_temperature;BME280_humidity;BME280_pressure;Samples;Min_cycle;Max_cycle;Signal;HPM_P1;HPM_P2
2021/11/22 00:01:35;;;;;;;5.53;3.83;;;8.20;99.90;;;;;;4995767;28;20212;-75
2021/11/22 00:04:01;;;;;;;8.20;5.07;;;8.20;99.90;;;;;;5005746;28;20534;-75
2021/11/22 00:06:27;;;;;;;6.20;4.33;;;8.20;99.90;;;;;;5008158;28;20846;-74
2021/11/22 00:08:53;;;;;;;6.27;4.47;;;8.20;99.90;;;;;;5007869;28;20450;-74
2021/11/22 00:11:19;;;;;;;6.00;4.00;;;8.10;99.90;;;;;;4997747;28;20439;-75
2021/11/22 00:13:45;;;;;;;6.10;4.03;;;8.10;99.90;;;;;;5021990;28;20236;-74
2021/11/22 00:16:11;;;;;;;5.77;4.03;;;8.10;99.90;;;;;;5017088;28;20697;-74
2021/11/22 00:18:36;;;;;;;7.33;4.20;;;8.10;99.90;;;;;;5033994;28;20234;-75
2021/11/22 00:21:02;;;;;;;10.13;4.93;;;8.10;99.90;;;;;;5018435;28;20447;-74
2021/11/22 00:23:28;;;;;;;7.40;4.30;;;8.10;99.90;;;;;;4994914;28;20221;-75
2021/11/22 00:25:54;;;;;;;5.87;3.80;;;8.10;99.90;;;;;;5031147;28;20607;-74
2021/11/22 00:28:19;;;;;;;14.73;5.47;;;8.10;99.90;;;;;;5031397;28;20231;-75
2021/11/22 00:31:14;;;;;;;6.33;3.67;;;8.00;99.90;;;;;;5000154;28;20224;-73
2021/11/22 00:33:48;;;;;;;9.63;5.13;;;8.10;99.90;;;;;;5005212;28;20474;-73
2021/11/22 00:36:40;;;;;;;6.60;3.80;;;8.10;99.90;;;;;;5027684;28;20460;-74
2021/11/22 00:39:05;;;;;;;5.83;3.53;;;8.10;99.90;;;;;;5003020;28;20455;-74
2021/11/22 00:41:31;;;;;;;8.97;4.50;;;8.10;99.90;;;;;;5031110;28;20216;-74
2021/11/22 00:43:57;;;;;;;6.20;4.40;;;8.00;99.90;;;;;;4996407;28;20224;-76
2021/11/22 00:46:26;;;;;;;6.03;4.30;;;8.00;99.90;;;;;;4997097;28;20274;-74
2021/11/22 00:48:52;;;;;;;5.97;4.20;;;8.00;99.90;;;;;;5007588;28;20227;-73
2021/11/22 00:51:18;;;;;;;11.93;4.70;;;8.00;99.90;;;;;;5031231;28;20451;-75
2021/11/22 00:53:43;;;;;;;7.93;3.70;;;8.00;99.90;;;;;;5038207;28;20825;-72
2021/11/22 00:56:09;;;;;;;6.30;3.63;;;8.00;99.90;;;;;;5028203;28;20640;-74
2021/11/22 00:58:35;;;;;;;9.90;4.50;;;8.00;99.90;;;;;;4995413;28;20225;-76
2021/11/22 01:01:01;;;;;;;6.07;3.67;;;8.00;99.90;;;;;;5012868;28;20220;-74
2021/11/22 01:03:26;;;;;;;8.33;3.83;;;8.00;99.90;;;;;;5029454;28;20216;-74
2021/11/22 01:05:52;;;;;;;10.73;4.27;;;8.00;99.90;;;;;;5021168;28;20591;-74
2021/11/22 01:08:18;;;;;;;8.40;3.73;;;8.00;99.90;;;;;;5013118;28;20216;-75
2021/11/22 01:10:45;;;;;;;8.67;3.50;;;8.00;99.90;;;;;;5030412;28;20245;-74
2021/11/22 01:13:11;;;;;;;6.57;3.87;;;8.00;99.90;;;;;;4996423;28;20252;-75
2021/11/22 01:15:37;;;;;;;9.77;4.60;;;8.00;99.90;;;;;;5012842;28;20464;-75
2021/11/22 01:18:03;;;;;;;5.97;3.80;;;8.00;99.90;;;;;;5016345;28;20455;-75
2021/11/22 01:20:31;;;;;;;5.83;4.30;;;8.00;99.90;;;;;;5011146;28;20213;-74
2021/11/22 01:23:06;;;;;;;7.23;4.37;;;8.00;99.90;;;;;;5010293;28;20448;-74
2021/11/22 01:25:32;;;;;;;5.47;4.17;;;8.00;99.90;;;;;;4996487;28;20486;-74
2021/11/22 01:27:58;;;;;;;6.80;4.20;;;8.00;99.90;;;;;;5026242;28;20972;-75
2021/11/22 01:30:24;;;;;;;9.13;4.00;;;7.90;99.90;;;;;;5012731;28;20485;-75
2021/11/22 01:32:50;;;;;;;7.70;4.00;;;7.90;99.90;;;;;;4995578;28;20217;-74
2021/11/22 01:35:17;;;;;;;9.10;4.90;;;7.90;99.90;;;;;;5008215;28;20487;-74
2021/11/22 01:37:44;;;;;;;7.43;4.63;;;7.90;99.90;;;;;;5011928;28;20503;-74
2021/11/22 01:40:12;;;;;;;7.20;3.27;;;7.90;99.90;;;;;;5017431;28;20446;-74
2021/11/22 01:42:40;;;;;;;7.90;4.17;;;7.90;99.90;;;;;;5006949;28;20456;-74
2021/11/22 01:45:08;;;;;;;7.90;4.10;;;7.90;99.90;;;;;;5008950;28;20460;-74
2021/11/22 01:47:34;;;;;;;6.40;3.63;;;7.90;99.90;;;;;;5009139;28;20463;-73
2021/11/22 01:50:00;;;;;;;4.60;3.70;;;7.90;99.90;;;;;;5014317;28;20455;-74
2021/11/22 01:52:25;;;;;;;4.80;3.50;;;7.90;99.90;;;;;;5027857;28;20522;-74
2021/11/22 01:54:51;;;;;;;4.20;3.33;;;7.90;99.90;;;;;;5031099;28;20207;-74
2021/11/22 01:57:20;;;;;;;8.43;3.80;;;7.90;99.90;;;;;;5021548;28;20282;-74
2021/11/22 01:59:46;;;;;;;10.17;3.53;;;7.90;99.90;;;;;;5023480;28;20259;-74
2021/11/22 02:02:13;;;;;;;5.87;3.47;;;7.80;99.90;;;;;;5009136;28;20482;-74
2021/11/22 02:04:39;;;;;;;6.93;3.40;;;7.80;99.90;;;;;;5030749;28;20230;-74
2021/11/22 02:07:06;;;;;;;6.63;2.80;;;7.80;99.90;;;;;;5003115;28;20454;-74
2021/11/22 02:09:32;;;;;;;6.53;3.87;;;7.80;99.90;;;;;;5017939;28;20463;-75
2021/11/22 02:11:59;;;;;;;5.23;3.43;;;7.80;99.90;;;;;;5008523;28;20497;-75
2021/11/22 02:14:25;;;;;;;4.30;2.93;;;7.80;99.90;;;;;;5027979;28;20537;-74
2021/11/22 02:16:51;;;;;;;4.47;3.20;;;7.80;99.90;;;;;;5016847;28;20471;-75
2021/11/22 02:19:17;;;;;;;3.13;2.20;;;7.80;99.90;;;;;;5026309;28;20451;-74
2021/11/22 02:21:43;;;;;;;9.37;3.30;;;7.80;99.90;;;;;;5035837;28;20463;-74
2021/11/22 02:24:10;;;;;;;7.63;4.03;;;7.80;99.90;;;;;;5042241;28;20510;-74
2021/11/22 02:26:36;;;;;;;3.30;2.70;;;7.70;99.90;;;;;;5028420;28;20456;-75
2021/11/22 02:29:03;;;;;;;4.93;3.50;;;7.70;99.90;;;;;;5025044;28;20442;-74
2021/11/22 02:31:29;;;;;;;5.03;2.70;;;7.70;99.90;;;;;;5007722;28;20451;-75
2021/11/22 02:33:55;;;;;;;8.83;3.67;;;7.70;99.90;;;;;;4999348;28;20452;-75
2021/11/22 02:36:21;;;;;;;5.00;3.20;;;7.70;99.90;;;;;;5024196;28;20465;-74
2021/11/22 02:38:48;;;;;;;6.07;2.70;;;7.70;99.90;;;;;;5027817;28;20331;-74
2021/11/22 02:41:16;;;;;;;4.37;2.93;;;7.70;99.90;;;;;;5014447;28;20538;-75
2021/11/22 02:43:44;;;;;;;4.33;3.10;;;7.70;99.90;;;;;;5038440;28;20454;-75
2021/11/22 02:46:10;;;;;;;4.50;2.33;;;7.60;99.90;;;;;;5030279;28;20447;-75
2021/11/22 02:48:36;;;;;;;4.40;2.77;;;7.60;99.90;;;;;;5029106;28;20475;-74
2021/11/22 02:51:04;;;;;;;3.50;2.53;;;7.60;99.90;;;;;;5015129;28;20506;-74
2021/11/22 02:53:30;;;;;;;3.50;2.30;;;7.60;99.90;;;;;;5041036;28;20459;-75
2021/11/22 02:56:03;;;;;;;3.80;2.10;;;7.60;99.90;;;;;;5034529;28;20500;-74
2021/11/22 02:58:30;;;;;;;6.00;2.17;;;7.50;99.90;;;;;;5010923;28;20228;-74
2021/11/22 03:00:57;;;;;;;2.17;1.97;;;7.50;99.90;;;;;;5021560;28;20459;-73
2021/11/22 03:03:30;;;;;;;9.33;2.50;;;7.50;99.90;;;;;;5009827;28;21115;-74
2021/11/22 03:06:08;;;;;;;12.50;2.57;;;7.50;99.90;;;;;;5026463;28;20458;-74
2021/11/22 03:08:34;;;;;;;3.90;2.00;;;7.50;99.90;;;;;;5023822;28;20450;-75
2021/11/22 03:11:00;;;;;;;2.30;2.07;;;7.50;99.90;;;;;;5023959;28;20511;-75
2021/11/22 03:13:26;;;;;;;4.27;2.00;;;7.50;99.90;;;;;;5014050;28;20458;-75
2021/11/22 03:15:52;;;;;;;1.87;1.77;;;7.50;99.90;;;;;;5030499;28;20215;-75
2021/11/22 03:18:17;;;;;;;9.17;2.60;;;7.40;99.90;;;;;;5042076;28;20223;-74
2021/11/22 03:20:44;;;;;;;2.77;2.30;;;7.50;99.90;;;;;;5040341;28;20216;-74
2021/11/22 03:23:09;;;;;;;6.50;2.67;;;7.50;99.90;;;;;;4998644;28;20239;-74
2021/11/22 03:25:35;;;;;;;5.60;2.43;;;7.50;99.90;;;;;;5034355;28;21050;-74
2021/11/22 03:28:01;;;;;;;2.87;1.77;;;7.50;99.90;;;;;;5030934;28;20299;-74
2021/11/22 03:30:26;;;;;;;2.03;1.73;;;7.50;99.90;;;;;;5029824;28;20233;-74
2021/11/22 03:32:52;;;;;;;9.50;2.37;;;7.40;99.90;;;;;;5023932;28;20224;-74
2021/11/22 03:35:18;;;;;;;4.43;1.70;;;7.40;99.90;;;;;;5033856;28;20262;-74
2021/11/22 03:37:44;;;;;;;3.63;2.30;;;7.40;99.90;;;;;;5040275;28;20228;-75
2021/11/22 03:40:10;;;;;;;2.13;1.93;;;7.40;99.90;;;;;;5009705;28;20224;-74
2021/11/22 03:42:41;;;;;;;5.73;2.33;;;7.40;99.90;;;;;;5037598;28;20215;-74
2021/11/22 03:45:09;;;;;;;3.70;2.13;;;7.40;99.90;;;;;;5027121;28;20550;-74
2021/11/22 03:47:36;;;;;;;4.60;3.00;;;7.40;99.90;;;;;;5032874;28;20458;-74
2021/11/22 03:50:03;;;;;;;3.50;1.93;;;7.40;99.90;;;;;;5014032;28;20455;-74
2021/11/22 03:52:28;;;;;;;4.53;2.63;;;7.40;99.90;;;;;;5016946;28;20497;-75
2021/11/22 03:54:54;;;;;;;3.20;2.13;;;7.40;99.90;;;;;;5011157;28;20484;-74
2021/11/22 03:57:20;;;;;;;2.63;2.07;;;7.40;99.90;;;;;;5033227;28;20232;-74
2021/11/22 03:59:46;;;;;;;3.40;2.20;;;7.40;99.90;;;;;;5013836;28;20215;-74
2021/11/22 04:02:12;;;;;;;4.23;2.83;;;7.40;99.90;;;;;;5024866;28;20238;-74
2021/11/22 04:04:38;;;;;;;3.87;2.30;;;7.30;99.90;;;;;;5023984;28;20451;-75
2021/11/22 04:07:04;;;;;;;2.70;2.50;;;7.30;99.90;;;;;;5038947;28;20462;-75
2021/11/22 04:09:31;;;;;;;3.67;1.90;;;7.30;99.90;;;;;;5043339;28;20216;-74
2021/11/22 04:11:56;;;;;;;1.67;1.57;;;7.30;99.90;;;;;;5033848;28;20484;-73
2021/11/22 04:14:22;;;;;;;4.00;2.23;;;7.30;99.90;;;;;;5019501;28;20509;-74
2021/11/22 04:16:50;;;;;;;2.33;1.93;;;7.30;99.90;;;;;;5010526;28;20276;-75
2021/11/22 04:19:16;;;;;;;3.40;1.80;;;7.30;99.90;;;;;;5014068;28;20216;-76
2021/11/22 04:21:42;;;;;;;3.00;2.60;;;7.30;99.90;;;;;;5013036;28;20455;-74
2021/11/22 04:24:08;;;;;;;3.63;2.20;;;7.30;99.90;;;;;;5012536;28;20456;-74
2021/11/22 04:26:34;;;;;;;3.43;2.20;;;7.30;99.90;;;;;;5013337;28;20459;-75
2021/11/22 04:29:00;;;;;;;5.53;3.07;;;7.30;99.90;;;;;;5011646;28;20277;-74
2021/11/22 04:31:26;;;;;;;4.67;2.37;;;7.30;99.90;;;;;;5025522;28;20229;-74
2021/11/22 04:33:52;;;;;;;3.10;2.17;;;7.30;99.90;;;;;;5008484;28;20459;-75
2021/11/22 04:36:17;;;;;;;2.57;2.00;;;7.30;99.90;;;;;;5013863;28;20448;-74
2021/11/22 04:38:43;;;;;;;3.00;1.93;;;7.20;99.90;;;;;;5025806;28;20628;-75
2021/11/22 04:41:09;;;;;;;3.23;1.77;;;7.20;99.90;;;;;;5031180;28;20227;-74
2021/11/22 04:43:35;;;;;;;4.77;2.50;;;7.20;99.90;;;;;;4993989;28;20237;-74
2021/11/22 04:46:01;;;;;;;2.20;1.93;;;7.20;99.90;;;;;;5012298;28;20244;-74
2021/11/22 04:48:27;;;;;;;3.73;2.20;;;7.20;99.90;;;;;;5013700;28;20610;-75
2021/11/22 04:50:52;;;;;;;3.97;1.83;;;7.20;99.90;;;;;;5031214;28;20351;-74
2021/11/22 04:53:18;;;;;;;4.10;2.00;;;7.20;99.90;;;;;;5030333;28;20277;-75
2021/11/22 04:55:44;;;;;;;11.17;2.10;;;7.20;99.90;;;;;;5012691;28;20221;-74
2021/11/22 04:58:10;;;;;;;3.47;1.90;;;7.20;99.90;;;;;;5031051;28;20233;-74
2021/11/22 05:00:37;;;;;;;1.97;1.80;;;7.20;99.90;;;;;;5013718;28;20701;-74
2021/11/22 05:03:04;;;;;;;5.13;2.00;;;7.20;99.90;;;;;;4992995;28;20209;-74
2021/11/22 05:05:31;;;;;;;2.00;1.80;;;7.20;99.90;;;;;;4996773;28;20459;-74
2021/11/22 05:07:57;;;;;;;2.07;1.87;;;7.20;99.90;;;;;;4996069;28;20495;-75
2021/11/22 05:10:28;;;;;;;3.97;2.10;;;7.10;99.90;;;;;;5001982;28;20499;-74
2021/11/22 05:12:53;;;;;;;2.70;2.07;;;7.10;99.90;;;;;;5030459;28;20216;-74
2021/11/22 05:15:19;;;;;;;4.43;1.93;;;7.10;99.90;;;;;;5029446;28;20474;-74
2021/11/22 05:17:45;;;;;;;1.80;1.60;;;7.10;99.90;;;;;;5028853;28;20603;-74
2021/11/22 05:20:11;;;;;;;5.37;2.30;;;7.10;99.90;;;;;;5004939;28;20240;-74
2021/11/22 05:22:37;;;;;;;4.10;1.60;;;7.10;99.90;;;;;;4997740;28;20224;-74
2021/11/22 05:25:04;;;;;;;2.37;1.77;;;7.10;99.90;;;;;;5029590;28;20217;-74
2021/11/22 05:27:30;;;;;;;5.23;2.37;;;7.10;99.90;;;;;;5008607;28;20538;-75
2021/11/22 05:29:57;;;;;;;1.67;1.57;;;7.10;99.90;;;;;;4992870;28;20456;-73
2021/11/22 05:32:23;;;;;;;3.80;1.87;;;7.10;99.90;;;;;;4996267;28;20463;-75
2021/11/22 05:34:51;;;;;;;2.57;1.57;;;7.10;99.90;;;;;;5011341;28;20472;-74
2021/11/22 05:37:17;;;;;;;4.73;2.10;;;7.10;99.90;;;;;;5004627;28;20228;-74
2021/11/22 05:39:44;;;;;;;6.50;1.67;;;7.10;99.90;;;;;;5012292;28;20459;-74
2021/11/22 05:42:10;;;;;;;6.13;2.27;;;7.10;99.90;;;;;;5013086;28;20277;-74
2021/11/22 05:44:35;;;;;;;4.70;1.97;;;7.10;99.90;;;;;;5030347;28;20467;-74
2021/11/22 05:47:04;;;;;;;2.93;1.80;;;7.10;99.90;;;;;;4999056;28;20253;-73
2021/11/22 05:49:33;;;;;;;3.90;2.10;;;7.10;99.90;;;;;;4988338;28;20224;-74
2021/11/22 05:52:00;;;;;;;1.33;1.33;;;7.10;99.90;;;;;;5002415;28;20453;-73
2021/11/22 05:54:26;;;;;;;3.73;1.60;;;7.10;99.90;;;;;;4999459;28;20509;-74
2021/11/22 05:56:53;;;;;;;4.40;2.30;;;7.10;99.90;;;;;;4995903;28;20972;-73
2021/11/22 05:59:19;;;;;;;4.83;2.40;;;7.10;99.90;;;;;;5010293;28;20451;-74
2021/11/22 06:01:45;;;;;;;4.13;1.80;;;7.10;99.90;;;;;;5008655;28;20456;-74
2021/11/22 06:04:11;;;;;;;2.80;1.80;;;7.10;99.90;;;;;;5009514;28;20470;-74
2021/11/22 06:06:36;;;;;;;3.80;2.07;;;7.10;99.90;;;;;;4994288;28;20942;-74
2021/11/22 06:09:02;;;;;;;2.83;1.30;;;7.10;99.90;;;;;;4996114;28;20217;-73
2021/11/22 06:11:28;;;;;;;2.20;1.90;;;7.10;99.90;;;;;;5009774;28;20219;-75
2021/11/22 06:13:54;;;;;;;7.60;2.53;;;7.00;99.90;;;;;;5011392;28;20220;-74
2021/11/22 06:16:20;;;;;;;2.90;2.40;;;7.00;99.90;;;;;;5012518;28;20304;-74
2021/11/22 06:18:45;;;;;;;2.83;1.90;;;6.90;99.90;;;;;;4991451;28;20706;-75
2021/11/22 06:21:11;;;;;;;8.90;2.43;;;6.90;99.90;;;;;;5005591;28;20212;-74
2021/11/22 06:23:37;;;;;;;3.80;2.13;;;6.90;99.90;;;;;;4996073;28;20256;-74
2021/11/22 06:26:03;;;;;;;10.30;3.53;;;6.80;99.90;;;;;;5005278;28;20292;-74
2021/11/22 06:28:29;;;;;;;4.37;2.67;;;6.70;99.90;;;;;;5016590;28;20238;-74
2021/11/22 06:30:54;;;;;;;3.60;2.17;;;6.70;99.90;;;;;;5030297;28;20534;-72
2021/11/22 06:33:20;;;;;;;3.07;2.27;;;6.60;99.90;;;;;;5012120;28;20682;-74
2021/11/22 06:35:46;;;;;;;3.93;2.00;;;6.60;99.90;;;;;;5012983;28;20709;-74
2021/11/22 06:38:12;;;;;;;2.10;1.90;;;6.60;99.90;;;;;;5015904;28;20237;-74
2021/11/22 06:40:39;;;;;;;3.20;2.03;;;6.60;99.90;;;;;;5014239;28;20213;-74
2021/11/22 06:43:05;;;;;;;3.67;2.20;;;6.70;99.90;;;;;;4996165;28;20482;-74
2021/11/22 06:45:31;;;;;;;5.60;2.57;;;6.70;99.90;;;;;;5033561;28;20447;-74
2021/11/22 06:47:57;;;;;;;5.07;2.37;;;6.60;99.90;;;;;;5032608;28;20459;-74
2021/11/22 06:50:23;;;;;;;6.40;2.30;;;6.60;99.90;;;;;;5015765;28;20447;-74
2021/11/22 06:52:49;;;;;;;3.93;2.63;;;6.60;99.90;;;;;;4997968;28;20247;-74
2021/11/22 06:55:16;;;;;;;3.37;2.20;;;6.60;99.90;;;;;;5032707;28;20431;-75
2021/11/22 06:57:42;;;;;;;3.20;2.17;;;6.60;99.90;;;;;;5011237;28;20236;-74
2021/11/22 07:00:11;;;;;;;5.30;1.93;;;6.50;99.90;;;;;;4996180;28;20447;-75
2021/11/22 07:02:40;;;;;;;3.80;2.47;;;6.50;99.90;;;;;;5012882;28;20332;-73
2021/11/22 07:05:07;;;;;;;3.80;2.07;;;6.40;99.90;;;;;;5027246;28;20508;-73
2021/11/22 07:07:33;;;;;;;2.33;1.83;;;6.50;99.90;;;;;;5015618;28;20459;-74
2021/11/22 07:09:59;;;;;;;4.37;2.13;;;6.50;99.90;;;;;;4998871;28;20601;-74
2021/11/22 07:12:24;;;;;;;2.63;2.13;;;6.50;99.90;;;;;;5014750;28;20546;-73
2021/11/22 07:14:50;;;;;;;2.93;2.63;;;6.50;99.90;;;;;;5032357;28;20304;-73
2021/11/22 07:17:16;;;;;;;5.57;2.47;;;6.60;99.90;;;;;;4998804;28;20232;-73
2021/11/22 07:19:42;;;;;;;7.63;3.43;;;6.60;99.90;;;;;;4996308;28;20220;-74
2021/11/22 07:22:09;;;;;;;2.57;2.37;;;6.60;99.90;;;;;;5027422;28;20228;-75
2021/11/22 07:24:39;;;;;;;6.33;2.93;;;6.60;99.90;;;;;;5032133;28;20463;-73
2021/11/22 07:27:05;;;;;;;4.57;2.73;;;6.60;99.90;;;;;;5030713;28;20494;-75
2021/11/22 07:29:31;;;;;;;7.33;2.47;;;6.60;99.90;;;;;;5032221;28;20463;-74
2021/11/22 07:31:57;;;;;;;5.13;2.63;;;6.70;99.90;;;;;;4997884;28;20971;-74
2021/11/22 07:34:23;;;;;;;4.30;2.27;;;6.60;99.90;;;;;;5029085;28;20235;-74
2021/11/22 07:36:48;;;;;;;2.67;2.30;;;6.60;99.90;;;;;;5009120;28;20455;-74
2021/11/22 07:39:14;;;;;;;2.87;2.37;;;6.60;99.90;;;;;;5009657;28;20620;-74
2021/11/22 07:41:40;;;;;;;4.90;2.30;;;6.50;99.90;;;;;;5013069;28;20211;-74
2021/11/22 07:44:06;;;;;;;5.70;2.30;;;6.50;99.90;;;;;;4997519;28;20229;-74
2021/11/22 07:46:32;;;;;;;2.50;2.07;;;6.50;99.90;;;;;;5013528;28;20280;-74
2021/11/22 07:48:58;;;;;;;4.33;3.17;;;6.50;99.90;;;;;;5030925;28;20492;-75
2021/11/22 07:51:24;;;;;;;3.13;2.20;;;6.50;99.90;;;;;;4995645;28;20295;-75
2021/11/22 07:53:50;;;;;;;4.20;2.17;;;6.50;99.90;;;;;;5009159;28;20224;-74
2021/11/22 07:56:16;;;;;;;3.77;2.40;;;6.40;99.90;;;;;;4981863;28;20441;-75
2021/11/22 07:58:42;;;;;;;5.17;2.27;;;6.40;99.90;;;;;;5009444;28;20609;-75
2021/11/22 08:01:08;;;;;;;5.00;3.10;;;6.40;99.90;;;;;;5016182;28;20530;-76
2021/11/22 08:03:33;;;;;;;2.53;2.33;;;6.50;99.90;;;;;;5008876;28;20459;-75
2021/11/22 08:06:00;;;;;;;3.30;2.43;;;6.50;99.90;;;;;;5010757;28;20246;-74
2021/11/22 08:08:29;;;;;;;7.70;4.23;;;6.50;99.90;;;;;;4994932;28;20252;-75
2021/11/22 08:11:07;;;;;;;4.53;2.90;;;6.50;99.90;;;;;;5027862;28;20486;-73
2021/11/22 08:13:34;;;;;;;4.30;2.50;;;6.50;99.90;;;;;;5010920;28;20467;-75
2021/11/22 08:16:02;;;;;;;4.43;2.93;;;6.50;99.90;;;;;;5028940;28;20487;-75
2021/11/22 08:18:28;;;;;;;7.80;2.90;;;6.60;99.90;;;;;;5002388;28;20471;-74
2021/11/22 08:20:55;;;;;;;6.90;4.00;;;6.50;99.90;;;;;;4993442;28;20459;-75
2021/11/22 08:23:21;;;;;;;5.63;3.33;;;6.50;99.90;;;;;;5010625;28;20643;-76
2021/11/22 08:25:46;;;;;;;3.83;2.97;;;6.50;99.90;;;;;;5008770;28;20474;-75
2021/11/22 08:28:12;;;;;;;4.37;2.87;;;6.50;99.90;;;;;;5011058;28;20270;-74
2021/11/22 08:30:38;;;;;;;3.00;2.70;;;6.50;99.90;;;;;;4993646;28;20690;-74
2021/11/22 08:33:04;;;;;;;4.27;3.30;;;6.60;99.90;;;;;;4993765;28;20698;-74
2021/11/22 08:35:33;;;;;;;3.00;2.40;;;6.60;99.90;;;;;;5009637;28;20467;-75
2021/11/22 08:38:00;;;;;;;2.40;1.97;;;6.60;99.90;;;;;;5010565;28;20242;-74
2021/11/22 08:40:26;;;;;;;2.83;2.20;;;6.60;99.90;;;;;;5009747;28;20452;-73
2021/11/22 08:42:54;;;;;;;2.83;2.60;;;6.60;99.90;;;;;;5009499;28;20880;-75
2021/11/22 08:45:22;;;;;;;4.63;2.67;;;6.60;99.90;;;;;;4994385;28;20467;-75
2021/11/22 08:47:50;;;;;;;2.30;2.10;;;6.70;99.90;;;;;;5027694;28;20451;-74
2021/11/22 08:50:16;;;;;;;2.33;2.13;;;6.70;99.90;;;;;;5006165;28;20463;-75
2021/11/22 08:52:43;;;;;;;2.37;2.13;;;6.90;99.90;;;;;;5006698;28;20474;-73
2021/11/22 08:55:09;;;;;;;3.30;2.10;;;6.90;99.90;;;;;;5010198;28;20866;-74
2021/11/22 08:57:35;;;;;;;3.90;2.57;;;6.80;99.90;;;;;;5010387;28;20570;-75
2021/11/22 09:00:06;;;;;;;2.67;1.67;;;6.80;99.90;;;;;;4994259;28;20455;-74
2021/11/22 09:02:32;;;;;;;2.57;2.07;;;6.80;99.90;;;;;;5009892;28;20451;-74
2021/11/22 09:04:58;;;;;;;3.10;1.90;;;6.80;99.90;;;;;;5009907;28;20493;-75
2021/11/22 09:07:23;;;;;;;2.40;2.20;;;6.80;99.90;;;;;;5010304;28;20223;-75
2021/11/22 09:09:49;;;;;;;2.90;1.87;;;6.80;99.90;;;;;;5009030;28;20764;-74
2021/11/22 09:12:15;;;;;;;2.57;1.50;;;6.80;99.90;;;;;;5010154;28;20213;-75
2021/11/22 09:14:41;;;;;;;2.83;2.57;;;6.80;99.90;;;;;;5009566;28;20221;-73
2021/11/22 09:17:06;;;;;;;1.67;1.57;;;6.80;99.90;;;;;;5010456;28;20317;-75
2021/11/22 09:19:32;;;;;;;3.37;1.67;;;6.90;99.90;;;;;;5009876;28;20212;-73
2021/11/22 09:21:58;;;;;;;3.60;1.77;;;6.90;99.90;;;;;;4990138;28;20221;-74
2021/11/22 09:24:24;;;;;;;2.33;1.87;;;6.90;99.90;;;;;;5007088;28;20235;-74
2021/11/22 09:26:50;;;;;;;4.40;1.90;;;7.00;99.90;;;;;;5005245;28;20296;-74
2021/11/22 09:29:16;;;;;;;2.33;2.00;;;6.90;99.90;;;;;;5009929;28;20258;-74
2021/11/22 09:31:41;;;;;;;1.53;1.20;;;6.90;99.90;;;;;;5009377;28;20213;-74
2021/11/22 09:34:07;;;;;;;3.87;1.57;;;6.90;99.90;;;;;;5008752;28;20635;-75
2021/11/22 09:36:33;;;;;;;3.27;1.83;;;6.90;99.90;;;;;;4993328;28;20220;-74
2021/11/22 09:38:58;;;;;;;3.03;2.20;;;7.00;99.90;;;;;;5008511;28;20322;-74
2021/11/22 09:41:28;;;;;;;2.73;1.63;;;7.00;99.90;;;;;;5008350;28;20612;-75
2021/11/22 09:43:58;;;;;;;2.50;1.57;;;7.00;99.90;;;;;;5006356;28;20239;-74
2021/11/22 09:46:24;;;;;;;1.50;1.40;;;7.10;99.90;;;;;;5022449;28;20455;-74
2021/11/22 09:48:51;;;;;;;1.80;1.07;;;7.10;99.90;;;;;;4996008;28;20973;-74
2021/11/22 09:51:16;;;;;;;2.37;1.80;;;7.10;99.90;;;;;;5001877;28;20458;-75
2021/11/22 09:53:42;;;;;;;4.00;1.43;;;7.10;99.90;;;;;;5002829;28;20879;-75
2021/11/22 09:56:09;;;;;;;1.90;1.40;;;7.10;99.90;;;;;;5009658;28;20228;-74
2021/11/22 09:58:35;;;;;;;1.70;1.60;;;7.10;99.90;;;;;;5007555;28;20282;-75
2021/11/22 10:01:05;;;;;;;2.00;1.87;;;7.20;99.90;;;;;;5009210;28;20447;-74
2021/11/22 10:03:31;;;;;;;1.80;1.70;;;7.20;99.90;;;;;;5025341;28;20212;-74
2021/11/22 10:06:00;;;;;;;2.43;1.90;;;7.20;99.90;;;;;;5005762;28;20460;-75
2021/11/22 10:08:26;;;;;;;1.40;1.30;;;7.30;99.90;;;;;;5006906;28;20243;-74
2021/11/22 10:11:00;;;;;;;2.33;1.73;;;7.30;99.90;;;;;;5027756;28;20979;-74
2021/11/22 10:13:39;;;;;;;1.30;1.20;;;7.40;99.90;;;;;;5011761;28;20470;-75
2021/11/22 10:16:07;;;;;;;4.20;1.60;;;7.40;99.90;;;;;;5012136;28;20455;-73
2021/11/22 10:18:38;;;;;;;3.03;1.07;;;7.40;99.90;;;;;;5014111;28;20542;-74
2021/11/22 10:21:09;;;;;;;1.37;1.27;;;7.40;99.90;;;;;;5014744;28;20512;-74
2021/11/22 10:23:41;;;;;;;1.70;1.57;;;7.50;99.90;;;;;;5014962;28;20455;-73
2021/11/22 10:26:10;;;;;;;1.80;1.53;;;7.50;99.90;;;;;;5013535;28;20533;-74
2021/11/22 10:28:42;;;;;;;1.17;1.17;;;7.60;99.90;;;;;;4998291;28;20983;-73
2021/11/22 10:31:12;;;;;;;1.80;1.70;;;7.60;99.90;;;;;;4997248;28;20452;-74
2021/11/22 10:33:39;;;;;;;1.33;1.23;;;7.60;99.90;;;;;;5032042;28;20471;-74
2021/11/22 10:36:08;;;;;;;3.10;2.07;;;7.60;99.90;;;;;;5029135;28;20468;-75
2021/11/22 10:38:36;;;;;;;1.50;1.40;;;7.60;99.90;;;;;;4997835;28;20472;-73
2021/11/22 10:41:09;;;;;;;1.97;1.60;;;7.60;99.90;;;;;;4997374;28;20963;-74
2021/11/22 10:43:39;;;;;;;2.37;2.00;;;7.60;99.90;;;;;;5031850;28;20459;-73
2021/11/22 10:46:08;;;;;;;1.97;1.80;;;7.60;99.90;;;;;;5028364;28;20498;-74
2021/11/22 10:48:34;;;;;;;2.10;1.37;;;7.60;99.90;;;;;;5004768;28;20457;-76
2021/11/22 10:51:12;;;;;;;3.33;2.03;;;7.60;99.90;;;;;;5000733;28;20455;-74
2021/11/22 10:53:39;;;;;;;2.40;1.70;;;7.60;99.90;;;;;;5007589;28;20551;-73
2021/11/22 10:56:11;;;;;;;1.53;1.30;;;7.50;99.90;;;;;;5014683;28;20542;-74
2021/11/22 10:58:49;;;;;;;4.60;2.17;;;7.50;99.90;;;;;;4994838;28;20468;-74
2021/11/22 11:01:22;;;;;;;2.73;1.33;;;7.50;99.90;;;;;;5012441;28;20447;-73
2021/11/22 11:04:11;;;;;;;1.53;1.33;;;7.50;99.90;;;;;;4984725;28;20459;-72
2021/11/22 11:06:38;;;;;;;2.30;1.43;;;7.40;99.90;;;;;;5006141;28;20507;-73
2021/11/22 11:09:07;;;;;;;1.40;1.10;;;7.40;99.90;;;;;;5008600;28;20535;-74
2021/11/22 11:11:33;;;;;;;1.30;1.10;;;7.40;99.90;;;;;;5005547;28;20836;-74
2021/11/22 11:14:07;;;;;;;1.83;1.27;;;7.40;99.90;;;;;;5008424;28;20476;-74
2021/11/22 11:16:35;;;;;;;1.50;1.40;;;7.40;99.90;;;;;;5005478;28;20817;-72
2021/11/22 11:19:04;;;;;;;1.80;1.70;;;7.40;99.90;;;;;;5012231;28;20531;-74
2021/11/22 11:21:33;;;;;;;2.23;1.63;;;7.40;99.90;;;;;;4978605;28;20534;-74
2021/11/22 11:24:01;;;;;;;2.00;1.80;;;7.40;99.90;;;;;;5028912;28;20471;-74
2021/11/22 11:26:28;;;;;;;3.50;1.70;;;7.40;99.90;;;;;;5010928;28;20480;-73
2021/11/22 11:28:55;;;;;;;4.93;2.33;;;7.40;99.90;;;;;;5002700;28;20479;-74
2021/11/22 11:31:21;;;;;;;4.00;1.90;;;7.40;99.90;;;;;;5012459;28;20485;-75
2021/11/22 11:33:47;;;;;;;1.77;1.40;;;7.40;99.90;;;;;;4995160;28;20996;-72
2021/11/22 11:36:40;;;;;;;1.73;1.60;;;7.40;99.90;;;;;;5011449;28;20509;-74
2021/11/22 11:39:25;;;;;;;2.57;1.37;;;7.40;99.90;;;;;;5009561;28;20485;-74
2021/11/22 11:41:59;;;;;;;4.83;2.50;;;7.40;99.90;;;;;;5025443;28;20477;-74
2021/11/22 11:44:34;;;;;;;4.47;1.67;;;7.40;99.90;;;;;;5029050;28;20462;-74
2021/11/22 11:47:33;;;;;;;1.60;1.20;;;7.40;99.90;;;;;;5011308;28;20471;-74
2021/11/22 11:50:38;;;;;;;1.70;1.60;;;7.50;99.90;;;;;;5007585;28;20454;-73
2021/11/22 11:53:10;;;;;;;2.57;1.80;;;7.50;99.90;;;;;;5009066;28;20987;-74
2021/11/22 11:55:37;;;;;;;3.10;1.70;;;7.50;99.90;;;;;;5028772;28;20486;-75
2021/11/22 11:58:17;;;;;;;1.47;1.37;;;7.40;99.90;;;;;;4993978;28;20475;-74
2021/11/22 12:01:00;;;;;;;3.87;2.00;;;7.40;99.90;;;;;;5009895;28;20459;-74
2021/11/22 12:03:29;;;;;;;2.50;1.67;;;7.40;99.90;;;;;;5009111;28;20458;-74
2021/11/22 12:05:58;;;;;;;3.57;1.83;;;7.40;99.90;;;;;;4994799;28;20455;-73
2021/11/22 12:08:32;;;;;;;8.73;1.40;;;7.50;99.90;;;;;;5009417;28;20455;-74
2021/11/22 12:11:03;;;;;;;2.23;1.20;;;7.50;99.90;;;;;;5009350;28;20556;-74
2021/11/22 12:13:52;;;;;;;3.23;1.43;;;7.40;99.90;;;;;;4994234;28;20538;-75
2021/11/22 12:16:43;;;;;;;3.03;1.43;;;7.40;99.90;;;;;;5012993;28;20876;-74
2021/11/22 12:19:35;;;;;;;2.10;1.13;;;7.40;99.90;;;;;;5011363;28;20555;-74
2021/11/22 12:22:15;;;;;;;3.87;1.90;;;7.40;99.90;;;;;;4993900;28;20463;-74
2021/11/22 12:24:43;;;;;;;4.27;1.60;;;7.50;99.90;;;;;;4991811;28;20478;-74
2021/11/22 12:27:33;;;;;;;2.47;1.40;;;7.50;99.90;;;;;;5025446;28;20471;-74
2021/11/22 12:30:02;;;;;;;3.43;1.80;;;7.50;99.90;;;;;;4994082;28;20508;-74
2021/11/22 12:32:31;;;;;;;2.83;1.70;;;7.50;99.90;;;;;;4995709;28;20538;-74
2021/11/22 12:34:59;;;;;;;2.60;1.30;;;7.50;99.90;;;;;;5011732;28;20468;-74
2021/11/22 12:37:30;;;;;;;1.83;1.37;;;7.60;99.90;;;;;;5012441;28;20510;-74
2021/11/22 12:40:10;;;;;;;2.50;1.73;;;7.60;99.90;;;;;;5012283;28;20451;-74
2021/11/22 12:42:55;;;;;;;1.57;1.47;;;7.60;99.90;;;;;;4994128;28;20451;-74
2021/11/22 12:45:21;;;;;;;1.73;1.63;;;7.60;99.90;;;;;;4995815;28;20451;-74
2021/11/22 12:47:48;;;;;;;1.50;1.23;;;7.60;99.90;;;;;;5012310;28;20462;-73
2021/11/22 12:50:21;;;;;;;3.17;1.70;;;7.60;99.90;;;;;;4994966;28;20443;-73
2021/11/22 12:53:05;;;;;;;4.50;1.90;;;7.60;99.90;;;;;;4988037;28;20463;-73
2021/11/22 12:55:38;;;;;;;3.27;1.90;;;7.60;99.90;;;;;;4997138;28;20454;-74
2021/11/22 12:58:18;;;;;;;4.27;1.87;;;7.60;99.90;;;;;;5010448;28;20471;-75
2021/11/22 13:00:44;;;;;;;1.73;1.50;;;7.60;99.90;;;;;;4996380;28;20455;-74
2021/11/22 13:03:16;;;;;;;3.07;2.03;;;7.60;99.90;;;;;;4995395;28;20461;-74